sensor_id;sensor_type;location;lat;lon;timestamp;P1;durP1;ratioP1;P2;durP2;ratioP2
70576;SDS011;58138;43.138;24.702;2023-04-04T00:00:08;14.45;;;12.30;;
70576;SDS011;58138;43.138;24.702;2023-04-04T00:02:35;15.25;;;12.30;;
70576;SDS011;58138;43.138;24.702;2023-04-04T00:05:01;18.27;;;14.05;;
70576;SDS011;58138;43.138;24.702;2023-04-04T00:07:27;24.02;;;17.08;;
70576;SDS011;58138;43.138;24.702;2023-04-04T00:09:53;21.67;;;18.52;;
70576;SDS011;58138;43.138;24.702;2023-04-04T00:12:18;24.92;;;19.13;;
70576;SDS011;58138;43.138;24.702;2023-04-04T00:14:45;23.25;;;17.92;;
70576;SDS011;58138;43.138;24.702;2023-04-04T00:17:11;22.42;;;18.98;;
70576;SDS011;58138;43.138;24.702;2023-04-04T00:19:36;21.90;;;17.50;;
70576;SDS011;58138;43.138;24.702;2023-04-04T00:22:02;21.83;;;17.15;;
70576;SDS011;58138;43.138;24.702;2023-04-04T00:24:27;21.63;;;16.50;;
70576;SDS011;58138;43.138;24.702;2023-04-04T00:26:54;18.20;;;13.15;;
70576;SDS011;58138;43.138;24.702;2023-04-04T00:29:20;14.10;;;11.65;;
70576;SDS011;58138;43.138;24.702;2023-04-04T00:31:45;14.60;;;11.27;;
70576;SDS011;58138;43.138;24.702;2023-04-04T00:34:11;14.98;;;10.02;;
70576;SDS011;58138;43.138;24.702;2023-04-04T00:36:36;10.07;;;8.48;;
70576;SDS011;58138;43.138;24.702;2023-04-04T00:39:02;10.40;;;8.52;;
70576;SDS011;58138;43.138;24.702;2023-04-04T00:41:28;7.68;;;6.88;;
70576;SDS011;58138;43.138;24.702;2023-04-04T00:43:54;7.43;;;6.57;;
70576;SDS011;58138;43.138;24.702;2023-04-04T00:46:20;6.75;;;6.15;;
70576;SDS011;58138;43.138;24.702;2023-04-04T00:48:46;7.55;;;6.40;;
70576;SDS011;58138;43.138;24.702;2023-04-04T00:51:12;9.30;;;6.38;;
70576;SDS011;58138;43.138;24.702;2023-04-04T00:53:38;5.88;;;5.20;;
70576;SDS011;58138;43.138;24.702;2023-04-04T00:56:04;8.38;;;5.63;;
70576;SDS011;58138;43.138;24.702;2023-04-04T00:58:32;6.20;;;5.60;;
70576;SDS011;58138;43.138;24.702;2023-04-04T01:00:58;6.10;;;5.40;;
70576;SDS011;58138;43.138;24.702;2023-04-04T01:03:24;5.88;;;5.28;;
70576;SDS011;58138;43.138;24.702;2023-04-04T01:05:50;6.47;;;4.95;;
70576;SDS011;58138;43.138;24.702;2023-04-04T01:08:17;5.40;;;4.68;;
70576;SDS011;58138;43.138;24.702;2023-04-04T01:10:46;7.45;;;5.15;;
70576;SDS011;58138;43.138;24.702;2023-04-04T01:13:13;5.30;;;4.80;;
70576;SDS011;58138;43.138;24.702;2023-04-04T01:15:39;5.47;;;4.90;;
70576;SDS011;58138;43.138;24.702;2023-04-04T01:18:05;6.70;;;5.47;;
70576;SDS011;58138;43.138;24.702;2023-04-04T01:20:32;7.05;;;5.97;;
70576;SDS011;58138;43.138;24.702;2023-04-04T01:22:58;7.50;;;6.32;;
70576;SDS011;58138;43.138;24.702;2023-04-04T01:25:27;8.80;;;7.45;;
70576;SDS011;58138;43.138;24.702;2023-04-04T01:27:55;9.23;;;8.27;;
70576;SDS011;58138;43.138;24.702;2023-04-04T01:30:21;11.57;;;8.80;;
70576;SDS011;58138;43.138;24.702;2023-04-04T01:32:50;10.02;;;8.93;;
70576;SDS011;58138;43.138;24.702;2023-04-04T01:40:37;9.95;;;8.75;;
70576;SDS011;58138;43.138;24.702;2023-04-04T01:43:03;9.40;;;8.45;;
70576;SDS011;58138;43.138;24.702;2023-04-04T01:45:29;9.77;;;8.50;;
70576;SDS011;58138;43.138;24.702;2023-04-04T01:47:54;9.25;;;8.30;;
70576;SDS011;58138;43.138;24.702;2023-04-04T01:50:23;10.25;;;8.40;;
70576;SDS011;58138;43.138;24.702;2023-04-04T01:52:48;10.68;;;8.52;;
70576;SDS011;58138;43.138;24.702;2023-04-04T01:55:14;9.57;;;7.97;;
70576;SDS011;58138;43.138;24.702;2023-04-04T01:57:40;8.82;;;7.75;;
70576;SDS011;58138;43.138;24.702;2023-04-04T02:00:05;8.82;;;7.50;;
70576;SDS011;58138;43.138;24.702;2023-04-04T02:02:32;10.57;;;7.85;;
70576;SDS011;58138;43.138;24.702;2023-04-04T02:04:58;9.80;;;6.82;;
70576;SDS011;58138;43.138;24.702;2023-04-04T02:07:23;8.10;;;7.30;;
70576;SDS011;58138;43.138;24.702;2023-04-04T02:09:49;7.72;;;6.90;;
70576;SDS011;58138;43.138;24.702;2023-04-04T02:12:15;8.57;;;7.05;;
70576;SDS011;58138;43.138;24.702;2023-04-04T02:14:41;8.23;;;6.90;;
70576;SDS011;58138;43.138;24.702;2023-04-04T02:17:07;8.73;;;6.95;;
70576;SDS011;58138;43.138;24.702;2023-04-04T02:19:33;7.20;;;6.50;;
70576;SDS011;58138;43.138;24.702;2023-04-04T02:21:58;8.38;;;7.30;;
70576;SDS011;58138;43.138;24.702;2023-04-04T02:24:25;8.15;;;7.18;;
70576;SDS011;58138;43.138;24.702;2023-04-04T02:26:50;10.10;;;8.05;;
70576;SDS011;58138;43.138;24.702;2023-04-04T02:29:16;9.38;;;7.88;;
70576;SDS011;58138;43.138;24.702;2023-04-04T02:31:41;10.15;;;7.68;;
70576;SDS011;58138;43.138;24.702;2023-04-04T02:34:07;8.95;;;7.85;;
70576;SDS011;58138;43.138;24.702;2023-04-04T02:36:33;9.23;;;7.30;;
70576;SDS011;58138;43.138;24.702;2023-04-04T02:38:58;9.77;;;7.13;;
70576;SDS011;58138;43.138;24.702;2023-04-04T02:41:25;8.55;;;7.00;;
70576;SDS011;58138;43.138;24.702;2023-04-04T02:43:50;8.27;;;7.47;;
70576;SDS011;58138;43.138;24.702;2023-04-04T02:46:16;8.50;;;7.38;;
70576;SDS011;58138;43.138;24.702;2023-04-04T02:48:42;9.85;;;8.07;;
70576;SDS011;58138;43.138;24.702;2023-04-04T02:51:08;9.85;;;7.60;;
70576;SDS011;58138;43.138;24.702;2023-04-04T02:53:33;10.43;;;7.38;;
70576;SDS011;58138;43.138;24.702;2023-04-04T02:56:01;11.23;;;8.90;;
70576;SDS011;58138;43.138;24.702;2023-04-04T02:58:27;8.82;;;7.65;;
70576;SDS011;58138;43.138;24.702;2023-04-04T03:00:53;9.73;;;7.50;;
70576;SDS011;58138;43.138;24.702;2023-04-04T03:03:19;11.07;;;7.60;;
70576;SDS011;58138;43.138;24.702;2023-04-04T03:05:45;8.82;;;7.85;;
70576;SDS011;58138;43.138;24.702;2023-04-04T03:08:13;8.25;;;6.82;;
70576;SDS011;58138;43.138;24.702;2023-04-04T03:10:39;8.18;;;7.30;;
70576;SDS011;58138;43.138;24.702;2023-04-04T03:13:04;10.35;;;7.47;;
70576;SDS011;58138;43.138;24.702;2023-04-04T03:15:30;8.57;;;6.47;;
70576;SDS011;58138;43.138;24.702;2023-04-04T03:17:56;8.43;;;6.53;;
70576;SDS011;58138;43.138;24.702;2023-04-04T03:20:23;9.30;;;6.20;;
70576;SDS011;58138;43.138;24.702;2023-04-04T03:22:49;7.45;;;6.32;;
70576;SDS011;58138;43.138;24.702;2023-04-04T03:25:15;7.55;;;5.97;;
70576;SDS011;58138;43.138;24.702;2023-04-04T03:27:41;7.47;;;6.03;;
70576;SDS011;58138;43.138;24.702;2023-04-04T03:30:07;8.27;;;6.43;;
70576;SDS011;58138;43.138;24.702;2023-04-04T03:32:33;7.07;;;6.38;;
70576;SDS011;58138;43.138;24.702;2023-04-04T03:35:00;8.43;;;5.63;;
70576;SDS011;58138;43.138;24.702;2023-04-04T03:37:25;6.82;;;5.97;;
70576;SDS011;58138;43.138;24.702;2023-04-04T03:39:51;6.80;;;5.28;;
70576;SDS011;58138;43.138;24.702;2023-04-04T03:42:16;5.80;;;5.20;;
70576;SDS011;58138;43.138;24.702;2023-04-04T03:44:42;7.85;;;6.45;;
70576;SDS011;58138;43.138;24.702;2023-04-04T03:47:07;8.07;;;6.13;;
70576;SDS011;58138;43.138;24.702;2023-04-04T03:49:33;6.90;;;5.88;;
70576;SDS011;58138;43.138;24.702;2023-04-04T03:51:59;5.20;;;4.70;;
70576;SDS011;58138;43.138;24.702;2023-04-04T03:54:26;6.57;;;4.70;;
70576;SDS011;58138;43.138;24.702;2023-04-04T03:56:53;5.57;;;5.07;;
70576;SDS011;58138;43.138;24.702;2023-04-04T03:59:19;10.23;;;7.30;;
70576;SDS011;58138;43.138;24.702;2023-04-04T04:01:45;9.75;;;7.00;;
70576;SDS011;58138;43.138;24.702;2023-04-04T04:04:11;6.63;;;5.22;;
70576;SDS011;58138;43.138;24.702;2023-04-04T04:06:36;7.78;;;6.78;;
70576;SDS011;58138;43.138;24.702;2023-04-04T04:09:02;9.65;;;7.75;;
70576;SDS011;58138;43.138;24.702;2023-04-04T04:11:27;10.40;;;7.95;;
70576;SDS011;58138;43.138;24.702;2023-04-04T04:13:53;8.98;;;7.18;;
70576;SDS011;58138;43.138;24.702;2023-04-04T04:16:19;12.00;;;8.85;;
70576;SDS011;58138;43.138;24.702;2023-04-04T04:18:48;11.95;;;9.07;;
70576;SDS011;58138;43.138;24.702;2023-04-04T04:21:14;12.48;;;9.25;;
70576;SDS011;58138;43.138;24.702;2023-04-04T04:23:39;12.00;;;9.10;;
70576;SDS011;58138;43.138;24.702;2023-04-04T04:26:05;11.38;;;8.73;;
70576;SDS011;58138;43.138;24.702;2023-04-04T04:28:31;13.90;;;11.07;;
70576;SDS011;58138;43.138;24.702;2023-04-04T04:31:06;13.32;;;9.98;;
70576;SDS011;58138;43.138;24.702;2023-04-04T04:33:32;13.32;;;10.15;;
70576;SDS011;58138;43.138;24.702;2023-04-04T04:35:58;11.45;;;8.48;;
70576;SDS011;58138;43.138;24.702;2023-04-04T04:38:28;7.82;;;6.82;;
70576;SDS011;58138;43.138;24.702;2023-04-04T04:40:54;14.27;;;7.47;;
70576;SDS011;58138;43.138;24.702;2023-04-04T04:43:20;9.93;;;7.80;;
70576;SDS011;58138;43.138;24.702;2023-04-04T04:45:46;11.85;;;8.80;;
70576;SDS011;58138;43.138;24.702;2023-04-04T04:48:11;16.27;;;12.13;;
70576;SDS011;58138;43.138;24.702;2023-04-04T04:50:37;16.15;;;11.77;;
70576;SDS011;58138;43.138;24.702;2023-04-04T04:53:03;18.45;;;12.98;;
70576;SDS011;58138;43.138;24.702;2023-04-04T04:55:29;16.52;;;13.23;;
70576;SDS011;58138;43.138;24.702;2023-04-04T04:57:54;15.63;;;12.13;;
70576;SDS011;58138;43.138;24.702;2023-04-04T05:00:20;17.65;;;12.75;;
70576;SDS011;58138;43.138;24.702;2023-04-04T05:02:47;18.33;;;13.00;;
70576;SDS011;58138;43.138;24.702;2023-04-04T05:05:14;17.55;;;12.50;;
70576;SDS011;58138;43.138;24.702;2023-04-04T05:07:43;19.15;;;14.73;;
70576;SDS011;58138;43.138;24.702;2023-04-04T05:10:10;17.98;;;13.85;;
70576;SDS011;58138;43.138;24.702;2023-04-04T05:12:40;13.40;;;11.00;;
70576;SDS011;58138;43.138;24.702;2023-04-04T05:15:07;16.33;;;13.45;;
70576;SDS011;58138;43.138;24.702;2023-04-04T05:17:36;14.88;;;12.32;;
70576;SDS011;58138;43.138;24.702;2023-04-04T05:20:02;15.95;;;12.43;;
70576;SDS011;58138;43.138;24.702;2023-04-04T05:22:28;13.43;;;11.27;;
70576;SDS011;58138;43.138;24.702;2023-04-04T05:24:54;15.90;;;13.05;;
70576;SDS011;58138;43.138;24.702;2023-04-04T05:27:21;11.13;;;9.00;;
70576;SDS011;58138;43.138;24.702;2023-04-04T05:29:46;11.48;;;10.07;;
70576;SDS011;58138;43.138;24.702;2023-04-04T05:32:12;9.52;;;8.52;;
70576;SDS011;58138;43.138;24.702;2023-04-04T05:34:38;10.45;;;9.35;;
70576;SDS011;58138;43.138;24.702;2023-04-04T05:37:04;12.20;;;8.77;;
70576;SDS011;58138;43.138;24.702;2023-04-04T05:39:30;12.68;;;10.45;;
70576;SDS011;58138;43.138;24.702;2023-04-04T05:41:55;12.48;;;11.02;;
70576;SDS011;58138;43.138;24.702;2023-04-04T05:47:36;12.25;;;9.82;;
70576;SDS011;58138;43.138;24.702;2023-04-04T05:50:02;11.45;;;10.25;;
70576;SDS011;58138;43.138;24.702;2023-04-04T05:52:28;11.55;;;9.10;;
70576;SDS011;58138;43.138;24.702;2023-04-04T05:54:53;12.15;;;8.93;;
70576;SDS011;58138;43.138;24.702;2023-04-04T05:57:19;14.90;;;10.23;;
70576;SDS011;58138;43.138;24.702;2023-04-04T05:59:44;17.02;;;12.05;;
70576;SDS011;58138;43.138;24.702;2023-04-04T06:02:10;16.40;;;12.32;;
70576;SDS011;58138;43.138;24.702;2023-04-04T06:04:35;13.27;;;11.20;;
70576;SDS011;58138;43.138;24.702;2023-04-04T06:07:02;15.05;;;12.98;;
70576;SDS011;58138;43.138;24.702;2023-04-04T06:09:29;11.90;;;10.20;;
70576;SDS011;58138;43.138;24.702;2023-04-04T06:11:54;13.52;;;9.40;;
70576;SDS011;58138;43.138;24.702;2023-04-04T06:14:20;45.83;;;31.65;;
70576;SDS011;58138;43.138;24.702;2023-04-04T06:16:45;23.67;;;17.00;;
70576;SDS011;58138;43.138;24.702;2023-04-04T06:19:11;20.05;;;15.43;;
70576;SDS011;58138;43.138;24.702;2023-04-04T06:21:37;17.77;;;13.82;;
70576;SDS011;58138;43.138;24.702;2023-04-04T06:24:02;13.27;;;10.68;;
70576;SDS011;58138;43.138;24.702;2023-04-04T06:26:27;10.75;;;9.30;;
70576;SDS011;58138;43.138;24.702;2023-04-04T06:28:53;18.90;;;14.18;;
70576;SDS011;58138;43.138;24.702;2023-04-04T06:31:19;10.13;;;8.85;;
70576;SDS011;58138;43.138;24.702;2023-04-04T06:33:45;26.65;;;20.45;;
70576;SDS011;58138;43.138;24.702;2023-04-04T06:36:10;14.68;;;10.20;;
70576;SDS011;58138;43.138;24.702;2023-04-04T06:38:36;10.15;;;8.52;;
70576;SDS011;58138;43.138;24.702;2023-04-04T06:41:01;34.08;;;24.23;;
70576;SDS011;58138;43.138;24.702;2023-04-04T06:43:27;19.00;;;13.85;;
70576;SDS011;58138;43.138;24.702;2023-04-04T06:45:52;12.18;;;9.57;;
70576;SDS011;58138;43.138;24.702;2023-04-04T06:48:18;9.02;;;7.10;;
70576;SDS011;58138;43.138;24.702;2023-04-04T06:50:43;15.60;;;12.70;;
70576;SDS011;58138;43.138;24.702;2023-04-04T06:53:09;11.60;;;9.25;;
70576;SDS011;58138;43.138;24.702;2023-04-04T06:55:34;12.57;;;9.23;;
70576;SDS011;58138;43.138;24.702;2023-04-04T06:58:01;19.75;;;15.32;;
70576;SDS011;58138;43.138;24.702;2023-04-04T07:00:26;16.00;;;12.27;;
70576;SDS011;58138;43.138;24.702;2023-04-04T07:02:56;10.63;;;8.93;;
70576;SDS011;58138;43.138;24.702;2023-04-04T07:05:24;8.85;;;6.60;;
70576;SDS011;58138;43.138;24.702;2023-04-04T07:07:51;10.63;;;7.60;;
70576;SDS011;58138;43.138;24.702;2023-04-04T07:10:19;10.98;;;6.75;;
70576;SDS011;58138;43.138;24.702;2023-04-04T07:12:47;5.97;;;5.20;;
70576;SDS011;58138;43.138;24.702;2023-04-04T07:15:13;28.00;;;19.27;;
70576;SDS011;58138;43.138;24.702;2023-04-04T07:17:39;8.68;;;6.80;;
70576;SDS011;58138;43.138;24.702;2023-04-04T07:20:08;11.75;;;8.13;;
70576;SDS011;58138;43.138;24.702;2023-04-04T07:22:37;10.10;;;7.38;;
70576;SDS011;58138;43.138;24.702;2023-04-04T07:25:04;6.75;;;5.40;;
70576;SDS011;58138;43.138;24.702;2023-04-04T07:27:30;12.20;;;8.52;;
70576;SDS011;58138;43.138;24.702;2023-04-04T07:29:56;9.40;;;7.53;;
70576;SDS011;58138;43.138;24.702;2023-04-04T07:32:21;5.38;;;4.72;;
70576;SDS011;58138;43.138;24.702;2023-04-04T07:34:47;6.78;;;5.25;;
70576;SDS011;58138;43.138;24.702;2023-04-04T07:37:13;9.95;;;7.88;;
70576;SDS011;58138;43.138;24.702;2023-04-04T07:39:39;12.70;;;8.23;;
70576;SDS011;58138;43.138;24.702;2023-04-04T07:42:04;6.47;;;5.80;;
70576;SDS011;58138;43.138;24.702;2023-04-04T07:44:30;12.95;;;8.05;;
70576;SDS011;58138;43.138;24.702;2023-04-04T07:46:56;6.53;;;4.90;;
70576;SDS011;58138;43.138;24.702;2023-04-04T07:49:22;9.18;;;5.55;;
70576;SDS011;58138;43.138;24.702;2023-04-04T07:51:48;7.97;;;6.25;;
70576;SDS011;58138;43.138;24.702;2023-04-04T07:54:13;7.55;;;5.53;;
70576;SDS011;58138;43.138;24.702;2023-04-04T07:56:39;18.40;;;11.20;;
70576;SDS011;58138;43.138;24.702;2023-04-04T07:59:05;8.57;;;5.63;;
70576;SDS011;58138;43.138;24.702;2023-04-04T08:01:30;11.13;;;6.13;;
70576;SDS011;58138;43.138;24.702;2023-04-04T08:03:56;8.43;;;5.20;;
70576;SDS011;58138;43.138;24.702;2023-04-04T08:06:21;5.32;;;4.43;;
70576;SDS011;58138;43.138;24.702;2023-04-04T08:08:47;5.93;;;4.22;;
70576;SDS011;58138;43.138;24.702;2023-04-04T08:11:12;5.85;;;4.15;;
70576;SDS011;58138;43.138;24.702;2023-04-04T08:13:38;6.55;;;4.32;;
70576;SDS011;58138;43.138;24.702;2023-04-04T08:16:04;10.55;;;5.43;;
70576;SDS011;58138;43.138;24.702;2023-04-04T08:18:30;9.00;;;5.90;;
70576;SDS011;58138;43.138;24.702;2023-04-04T08:20:56;7.95;;;5.72;;
70576;SDS011;58138;43.138;24.702;2023-04-04T08:23:22;9.80;;;6.10;;
70576;SDS011;58138;43.138;24.702;2023-04-04T08:25:47;13.93;;;9.65;;
70576;SDS011;58138;43.138;24.702;2023-04-04T08:28:13;10.75;;;7.30;;
70576;SDS011;58138;43.138;24.702;2023-04-04T08:30:39;12.52;;;8.82;;
70576;SDS011;58138;43.138;24.702;2023-04-04T08:33:05;9.30;;;6.43;;
70576;SDS011;58138;43.138;24.702;2023-04-04T08:35:30;9.45;;;7.10;;
70576;SDS011;58138;43.138;24.702;2023-04-04T08:37:56;5.32;;;4.53;;
70576;SDS011;58138;43.138;24.702;2023-04-04T08:40:22;8.25;;;5.63;;
70576;SDS011;58138;43.138;24.702;2023-04-04T08:42:47;8.02;;;5.47;;
70576;SDS011;58138;43.138;24.702;2023-04-04T08:45:16;9.77;;;7.47;;
70576;SDS011;58138;43.138;24.702;2023-04-04T08:47:43;7.72;;;5.55;;
70576;SDS011;58138;43.138;24.702;2023-04-04T08:50:08;8.30;;;6.40;;
70576;SDS011;58138;43.138;24.702;2023-04-04T08:52:34;7.82;;;6.63;;
70576;SDS011;58138;43.138;24.702;2023-04-04T08:55:04;9.30;;;7.38;;
70576;SDS011;58138;43.138;24.702;2023-04-04T08:57:30;7.32;;;5.90;;
70576;SDS011;58138;43.138;24.702;2023-04-04T08:59:57;7.15;;;5.72;;
70576;SDS011;58138;43.138;24.702;2023-04-04T09:02:31;11.43;;;7.50;;
70576;SDS011;58138;43.138;24.702;2023-04-04T09:04:59;13.77;;;8.93;;
70576;SDS011;58138;43.138;24.702;2023-04-04T09:07:25;20.33;;;12.35;;
70576;SDS011;58138;43.138;24.702;2023-04-04T09:09:51;13.05;;;9.50;;
70576;SDS011;58138;43.138;24.702;2023-04-04T09:12:18;16.33;;;10.93;;
70576;SDS011;58138;43.138;24.702;2023-04-04T09:14:43;11.50;;;7.85;;
70576;SDS011;58138;43.138;24.702;2023-04-04T09:17:10;14.63;;;9.75;;
70576;SDS011;58138;43.138;24.702;2023-04-04T09:19:36;10.52;;;7.53;;
70576;SDS011;58138;43.138;24.702;2023-04-04T09:22:05;14.00;;;9.05;;
70576;SDS011;58138;43.138;24.702;2023-04-04T09:24:37;20.35;;;11.45;;
70576;SDS011;58138;43.138;24.702;2023-04-04T09:27:04;10.82;;;6.70;;
70576;SDS011;58138;43.138;24.702;2023-04-04T09:29:32;7.97;;;6.25;;
70576;SDS011;58138;43.138;24.702;2023-04-04T09:31:58;8.50;;;6.82;;
70576;SDS011;58138;43.138;24.702;2023-04-04T09:34:24;13.38;;;9.10;;
70576;SDS011;58138;43.138;24.702;2023-04-04T09:36:49;9.02;;;7.43;;
70576;SDS011;58138;43.138;24.702;2023-04-04T09:39:14;8.48;;;6.60;;
70576;SDS011;58138;43.138;24.702;2023-04-04T09:41:44;9.63;;;7.68;;
70576;SDS011;58138;43.138;24.702;2023-04-04T09:44:10;9.73;;;7.82;;
70576;SDS011;58138;43.138;24.702;2023-04-04T09:46:37;9.20;;;7.57;;
70576;SDS011;58138;43.138;24.702;2023-04-04T09:49:03;8.27;;;6.50;;
70576;SDS011;58138;43.138;24.702;2023-04-04T09:51:35;7.43;;;5.97;;
70576;SDS011;58138;43.138;24.702;2023-04-04T09:54:02;7.53;;;5.78;;
70576;SDS011;58138;43.138;24.702;2023-04-04T09:56:31;6.47;;;5.22;;
70576;SDS011;58138;43.138;24.702;2023-04-04T09:58:57;6.47;;;5.22;;
70576;SDS011;58138;43.138;24.702;2023-04-04T10:01:24;7.60;;;5.55;;
70576;SDS011;58138;43.138;24.702;2023-04-04T10:03:50;6.25;;;4.97;;
70576;SDS011;58138;43.138;24.702;2023-04-04T10:06:17;9.43;;;5.47;;
70576;SDS011;58138;43.138;24.702;2023-04-04T10:08:43;6.00;;;5.05;;
70576;SDS011;58138;43.138;24.702;2023-04-04T10:11:08;7.25;;;5.78;;
70576;SDS011;58138;43.138;24.702;2023-04-04T10:13:34;8.25;;;5.70;;
70576;SDS011;58138;43.138;24.702;2023-04-04T10:16:01;7.40;;;5.85;;
70576;SDS011;58138;43.138;24.702;2023-04-04T10:18:29;10.30;;;6.45;;
70576;SDS011;58138;43.138;24.702;2023-04-04T10:20:57;6.90;;;5.75;;
70576;SDS011;58138;43.138;24.702;2023-04-04T10:23:23;8.00;;;6.30;;
70576;SDS011;58138;43.138;24.702;2023-04-04T10:25:51;8.15;;;5.90;;
70576;SDS011;58138;43.138;24.702;2023-04-04T10:28:24;7.07;;;5.70;;
70576;SDS011;58138;43.138;24.702;2023-04-04T10:30:56;7.70;;;5.97;;
70576;SDS011;58138;43.138;24.702;2023-04-04T10:33:42;13.93;;;9.60;;
70576;SDS011;58138;43.138;24.702;2023-04-04T10:36:11;7.20;;;5.70;;
70576;SDS011;58138;43.138;24.702;2023-04-04T10:38:43;15.68;;;10.65;;
70576;SDS011;58138;43.138;24.702;2023-04-04T10:41:09;10.25;;;5.97;;
70576;SDS011;58138;43.138;24.702;2023-04-04T10:43:38;9.30;;;7.07;;
70576;SDS011;58138;43.138;24.702;2023-04-04T10:46:16;11.65;;;8.20;;
70576;SDS011;58138;43.138;24.702;2023-04-04T10:48:43;10.07;;;8.75;;
70576;SDS011;58138;43.138;24.702;2023-04-04T10:51:09;7.63;;;6.45;;
70576;SDS011;58138;43.138;24.702;2023-04-04T10:53:36;7.80;;;6.28;;
70576;SDS011;58138;43.138;24.702;2023-04-04T10:56:02;8.60;;;7.28;;
70576;SDS011;58138;43.138;24.702;2023-04-04T10:58:28;14.15;;;10.00;;
70576;SDS011;58138;43.138;24.702;2023-04-04T11:00:54;11.32;;;9.15;;
70576;SDS011;58138;43.138;24.702;2023-04-04T11:03:20;13.20;;;9.65;;
70576;SDS011;58138;43.138;24.702;2023-04-04T11:05:46;15.13;;;10.57;;
70576;SDS011;58138;43.138;24.702;2023-04-04T11:08:18;15.38;;;12.63;;
70576;SDS011;58138;43.138;24.702;2023-04-04T11:10:49;10.50;;;8.13;;
70576;SDS011;58138;43.138;24.702;2023-04-04T11:13:25;12.07;;;10.30;;
70576;SDS011;58138;43.138;24.702;2023-04-04T11:15:57;13.50;;;8.98;;
70576;SDS011;58138;43.138;24.702;2023-04-04T11:21:20;13.23;;;10.18;;
70576;SDS011;58138;43.138;24.702;2023-04-04T11:28:56;9.60;;;7.60;;
70576;SDS011;58138;43.138;24.702;2023-04-04T11:31:23;7.93;;;6.28;;
70576;SDS011;58138;43.138;24.702;2023-04-04T11:39:07;11.20;;;8.13;;
70576;SDS011;58138;43.138;24.702;2023-04-04T11:41:47;10.18;;;8.35;;
70576;SDS011;58138;43.138;24.702;2023-04-04T11:44:16;8.57;;;6.45;;
70576;SDS011;58138;43.138;24.702;2023-04-04T11:46:42;9.98;;;7.45;;
70576;SDS011;58138;43.138;24.702;2023-04-04T11:49:08;7.50;;;6.13;;
70576;SDS011;58138;43.138;24.702;2023-04-04T11:51:34;7.30;;;5.55;;
70576;SDS011;58138;43.138;24.702;2023-04-04T11:54:01;7.00;;;5.78;;
70576;SDS011;58138;43.138;24.702;2023-04-04T11:56:27;5.90;;;5.20;;
70576;SDS011;58138;43.138;24.702;2023-04-04T11:58:52;5.78;;;4.80;;
70576;SDS011;58138;43.138;24.702;2023-04-04T12:01:18;8.00;;;6.10;;
70576;SDS011;58138;43.138;24.702;2023-04-04T12:03:44;5.55;;;4.90;;
70576;SDS011;58138;43.138;24.702;2023-04-04T12:06:10;12.43;;;8.18;;
70576;SDS011;58138;43.138;24.702;2023-04-04T12:08:36;6.55;;;5.15;;
70576;SDS011;58138;43.138;24.702;2023-04-04T12:11:05;6.38;;;4.95;;
70576;SDS011;58138;43.138;24.702;2023-04-04T12:13:31;7.80;;;5.80;;
70576;SDS011;58138;43.138;24.702;2023-04-04T12:15:57;7.40;;;6.18;;
70576;SDS011;58138;43.138;24.702;2023-04-04T12:18:22;8.98;;;6.75;;
70576;SDS011;58138;43.138;24.702;2023-04-04T12:20:51;7.32;;;5.78;;
70576;SDS011;58138;43.138;24.702;2023-04-04T12:23:17;6.55;;;5.78;;
70576;SDS011;58138;43.138;24.702;2023-04-04T12:25:43;5.65;;;4.63;;
70576;SDS011;58138;43.138;24.702;2023-04-04T12:28:12;6.68;;;5.47;;
70576;SDS011;58138;43.138;24.702;2023-04-04T12:30:37;6.93;;;4.18;;
70576;SDS011;58138;43.138;24.702;2023-04-04T12:33:03;6.43;;;5.03;;
70576;SDS011;58138;43.138;24.702;2023-04-04T12:35:30;12.07;;;8.55;;
70576;SDS011;58138;43.138;24.702;2023-04-04T12:40:27;10.25;;;7.68;;
70576;SDS011;58138;43.138;24.702;2023-04-04T12:42:54;11.18;;;7.68;;
70576;SDS011;58138;43.138;24.702;2023-04-04T12:45:20;9.05;;;6.55;;
70576;SDS011;58138;43.138;24.702;2023-04-04T12:47:53;10.68;;;8.15;;
70576;SDS011;58138;43.138;24.702;2023-04-04T12:50:21;9.10;;;6.75;;
70576;SDS011;58138;43.138;24.702;2023-04-04T12:52:49;7.50;;;5.68;;
70576;SDS011;58138;43.138;24.702;2023-04-04T12:55:17;6.55;;;5.03;;
70576;SDS011;58138;43.138;24.702;2023-04-04T12:57:45;8.32;;;6.10;;
70576;SDS011;58138;43.138;24.702;2023-04-04T13:00:11;10.05;;;7.22;;
70576;SDS011;58138;43.138;24.702;2023-04-04T13:02:38;8.27;;;6.60;;
70576;SDS011;58138;43.138;24.702;2023-04-04T13:05:04;7.82;;;6.05;;
70576;SDS011;58138;43.138;24.702;2023-04-04T13:07:32;10.20;;;6.88;;
70576;SDS011;58138;43.138;24.702;2023-04-04T13:10:04;14.02;;;9.00;;
70576;SDS011;58138;43.138;24.702;2023-04-04T13:15:17;8.93;;;5.97;;
70576;SDS011;58138;43.138;24.702;2023-04-04T13:17:44;13.50;;;7.15;;
70576;SDS011;58138;43.138;24.702;2023-04-04T13:20:14;26.48;;;17.38;;
70576;SDS011;58138;43.138;24.702;2023-04-04T13:22:41;26.98;;;18.80;;
70576;SDS011;58138;43.138;24.702;2023-04-04T13:25:07;24.15;;;17.45;;
70576;SDS011;58138;43.138;24.702;2023-04-04T13:27:34;11.38;;;8.13;;
70576;SDS011;58138;43.138;24.702;2023-04-04T13:30:01;9.15;;;6.80;;
70576;SDS011;58138;43.138;24.702;2023-04-04T13:32:27;11.65;;;8.65;;
70576;SDS011;58138;43.138;24.702;2023-04-04T13:34:53;9.75;;;7.93;;
70576;SDS011;58138;43.138;24.702;2023-04-04T13:37:18;9.57;;;7.25;;
70576;SDS011;58138;43.138;24.702;2023-04-04T13:39:44;10.35;;;7.97;;
70576;SDS011;58138;43.138;24.702;2023-04-04T13:42:10;7.35;;;6.15;;
70576;SDS011;58138;43.138;24.702;2023-04-04T13:44:36;10.63;;;8.65;;
70576;SDS011;58138;43.138;24.702;2023-04-04T13:47:02;11.45;;;9.00;;
70576;SDS011;58138;43.138;24.702;2023-04-04T13:49:27;9.55;;;6.53;;
70576;SDS011;58138;43.138;24.702;2023-04-04T13:51:53;6.60;;;4.25;;
70576;SDS011;58138;43.138;24.702;2023-04-04T13:54:18;13.27;;;8.30;;
70576;SDS011;58138;43.138;24.702;2023-04-04T13:56:44;8.27;;;5.28;;
70576;SDS011;58138;43.138;24.702;2023-04-04T13:59:11;11.32;;;8.30;;
70576;SDS011;58138;43.138;24.702;2023-04-04T14:01:37;6.85;;;4.65;;
70576;SDS011;58138;43.138;24.702;2023-04-04T14:04:05;8.35;;;7.18;;
70576;SDS011;58138;43.138;24.702;2023-04-04T14:06:31;9.52;;;8.13;;
70576;SDS011;58138;43.138;24.702;2023-04-04T14:08:57;10.25;;;8.00;;
70576;SDS011;58138;43.138;24.702;2023-04-04T14:11:22;7.95;;;6.38;;
70576;SDS011;58138;43.138;24.702;2023-04-04T14:13:49;8.00;;;5.95;;
70576;SDS011;58138;43.138;24.702;2023-04-04T14:16:16;19.27;;;12.88;;
70576;SDS011;58138;43.138;24.702;2023-04-04T14:18:42;12.07;;;9.10;;
70576;SDS011;58138;43.138;24.702;2023-04-04T14:21:08;15.05;;;9.23;;
70576;SDS011;58138;43.138;24.702;2023-04-04T14:23:34;14.40;;;9.63;;
70576;SDS011;58138;43.138;24.702;2023-04-04T14:26:00;9.27;;;6.15;;
70576;SDS011;58138;43.138;24.702;2023-04-04T14:28:26;7.95;;;5.60;;
70576;SDS011;58138;43.138;24.702;2023-04-04T14:30:52;8.68;;;6.20;;
70576;SDS011;58138;43.138;24.702;2023-04-04T14:33:17;9.95;;;7.85;;
70576;SDS011;58138;43.138;24.702;2023-04-04T14:35:43;8.93;;;7.22;;
70576;SDS011;58138;43.138;24.702;2023-04-04T14:38:08;10.52;;;7.50;;
70576;SDS011;58138;43.138;24.702;2023-04-04T14:40:34;7.68;;;6.43;;
70576;SDS011;58138;43.138;24.702;2023-04-04T14:43:00;8.02;;;7.20;;
70576;SDS011;58138;43.138;24.702;2023-04-04T14:45:25;11.40;;;9.65;;
70576;SDS011;58138;43.138;24.702;2023-04-04T14:47:52;14.18;;;10.75;;